createdAt,value
2023-11-12T00:02:20.448Z,2.65
2023-11-12T00:04:48.638Z,2.50
2023-11-12T00:07:16.072Z,1.55
2023-11-12T00:09:43.129Z,2.35
2023-11-12T00:12:10.535Z,3.67
2023-11-12T00:14:41.605Z,5.68
2023-11-12T00:17:10.478Z,2.30
2023-11-12T00:19:37.844Z,3.90
2023-11-12T00:22:07.051Z,3.17
2023-11-12T00:24:34.537Z,2.75
2023-11-12T00:27:01.632Z,3.28
2023-11-12T00:29:28.816Z,4.15
2023-11-12T00:31:57.154Z,3.70
2023-11-12T00:34:24.629Z,2.15
2023-11-12T00:36:52.519Z,1.65
2023-11-12T00:39:19.681Z,2.05
2023-11-12T00:41:46.827Z,1.85
2023-11-12T00:44:14.354Z,2.65
2023-11-12T00:46:42.492Z,2.45
2023-11-12T00:49:09.869Z,2.47
2023-11-12T00:51:37.790Z,3.50
2023-11-12T00:54:05.330Z,2.42
2023-11-12T00:56:33.387Z,4.32
2023-11-12T00:59:00.710Z,2.65
2023-11-12T01:01:28.508Z,3.05
2023-11-12T01:03:57.545Z,2.25
2023-11-12T01:06:25.431Z,3.00
2023-11-12T01:08:52.608Z,1.67
2023-11-12T01:11:19.836Z,2.80
2023-11-12T01:13:47.220Z,2.45
2023-11-12T01:16:14.491Z,2.03
2023-11-12T01:18:43.252Z,3.63
2023-11-12T01:21:11.056Z,3.30
2023-11-12T01:23:38.535Z,3.13
2023-11-12T01:26:05.799Z,2.40
2023-11-12T01:28:35.487Z,2.78
2023-11-12T01:31:03.512Z,2.63
2023-11-12T01:33:30.943Z,2.60
2023-11-12T01:35:58.984Z,3.47
2023-11-12T01:38:26.250Z,1.70
2023-11-12T01:40:55.777Z,3.40
2023-11-12T01:43:23.091Z,5.00
2023-11-12T01:45:51.065Z,4.55
2023-11-12T01:48:18.586Z,4.72
2023-11-12T01:50:46.035Z,5.22
2023-11-12T01:53:15.819Z,7.00
2023-11-12T01:55:45.562Z,4.75
2023-11-12T01:58:14.627Z,4.28
2023-11-12T02:00:42.506Z,4.80
2023-11-12T02:03:14.600Z,3.35
2023-11-12T02:05:43.127Z,4.45
2023-11-12T02:08:11.102Z,4.40
2023-11-12T02:10:39.182Z,5.22
2023-11-12T02:13:08.062Z,6.25
2023-11-12T02:15:37.099Z,6.65
2023-11-12T02:18:04.889Z,4.32
2023-11-12T02:20:32.389Z,5.47
2023-11-12T02:23:00.001Z,6.13
2023-11-12T02:25:27.311Z,6.60
2023-11-12T02:27:54.559Z,6.80
2023-11-12T02:30:21.934Z,5.57
2023-11-12T02:32:49.634Z,4.60
2023-11-12T02:35:17.973Z,5.50
2023-11-12T02:37:46.037Z,7.00
2023-11-12T02:40:13.608Z,7.15
2023-11-12T02:42:41.010Z,9.60
2023-11-12T02:45:09.820Z,8.30
2023-11-12T02:47:37.245Z,8.20
2023-11-12T02:50:32.785Z,7.43
2023-11-12T02:53:02.016Z,6.22
2023-11-12T02:55:30.524Z,9.50
2023-11-12T02:57:59.228Z,8.05
2023-11-12T03:00:28.937Z,7.53
2023-11-12T03:03:02.035Z,6.60
2023-11-12T03:05:30.969Z,6.78
2023-11-12T03:08:01.383Z,8.15
2023-11-12T03:10:29.782Z,8.70
2023-11-12T03:12:57.202Z,7.10
2023-11-12T03:15:25.647Z,6.97
2023-11-12T03:17:54.280Z,6.70
2023-11-12T03:20:21.962Z,6.85
2023-11-12T03:22:49.135Z,9.57
2023-11-12T03:25:16.497Z,8.60
2023-11-12T03:27:44.143Z,7.22
2023-11-12T03:30:14.294Z,6.78
2023-11-12T03:32:42.061Z,7.25
2023-11-12T03:35:09.863Z,8.23
2023-11-12T03:37:39.252Z,9.43
2023-11-12T03:40:07.623Z,8.45
2023-11-12T03:42:35.168Z,9.32
2023-11-12T03:45:03.968Z,11.85
2023-11-12T03:47:33.323Z,9.48
2023-11-12T03:50:00.854Z,9.07
2023-11-12T03:52:27.981Z,6.18
2023-11-12T03:54:55.263Z,8.30
2023-11-12T03:57:23.864Z,8.30
2023-11-12T03:59:53.155Z,7.90
2023-11-12T04:02:22.170Z,7.93
2023-11-12T04:04:49.586Z,7.03
2023-11-12T04:07:17.297Z,8.48
2023-11-12T04:09:44.641Z,7.50
2023-11-12T04:12:12.974Z,7.68
2023-11-12T04:14:40.313Z,7.13
2023-11-12T04:17:07.711Z,7.45
2023-11-12T04:19:34.841Z,6.47
2023-11-12T04:22:02.018Z,8.45
2023-11-12T04:24:29.813Z,6.43
2023-11-12T04:26:57.495Z,7.55
2023-11-12T04:29:24.821Z,7.95
2023-11-12T04:31:51.998Z,7.60
2023-11-12T04:34:19.140Z,9.07
2023-11-12T04:36:46.234Z,7.25
2023-11-12T04:39:13.505Z,9.82
2023-11-12T04:41:40.685Z,8.52
2023-11-12T04:44:07.741Z,7.75
2023-11-12T04:46:36.348Z,9.40
2023-11-12T04:49:03.776Z,11.32
2023-11-12T04:51:34.316Z,8.65
2023-11-12T04:54:01.799Z,7.68
2023-11-12T04:56:28.966Z,11.02
2023-11-12T04:58:56.063Z,8.95
2023-11-12T05:01:23.263Z,7.43
2023-11-12T05:03:50.554Z,9.23
2023-11-12T05:06:17.909Z,8.13
2023-11-12T05:08:44.953Z,5.68
2023-11-12T05:11:12.188Z,5.78
2023-11-12T05:13:39.362Z,7.32
2023-11-12T05:16:06.998Z,9.30
2023-11-12T05:18:34.171Z,8.82
2023-11-12T05:21:01.352Z,8.48
2023-11-12T05:23:28.491Z,7.20
2023-11-12T05:25:59.489Z,6.38
2023-11-12T05:28:30.568Z,9.70
2023-11-12T05:30:57.785Z,8.40
2023-11-12T05:33:24.933Z,9.30
2023-11-12T05:35:52.373Z,8.07
2023-11-12T05:38:19.489Z,11.43
2023-11-12T05:40:46.694Z,6.93
2023-11-12T05:43:13.879Z,9.25
2023-11-12T05:45:41.049Z,7.03
2023-11-12T05:48:11.060Z,9.88
2023-11-12T05:50:39.093Z,7.07
2023-11-12T05:53:06.181Z,8.55
2023-11-12T05:55:33.628Z,7.80
2023-11-12T05:58:00.822Z,8.30
2023-11-12T06:00:28.155Z,8.52
2023-11-12T06:02:55.659Z,9.95
2023-11-12T06:05:22.870Z,8.00
2023-11-12T06:07:50.234Z,6.55
2023-11-12T06:10:17.612Z,9.57
2023-11-12T06:12:45.532Z,9.45
2023-11-12T06:15:12.900Z,13.60
2023-11-12T06:17:40.390Z,12.35
2023-11-12T06:20:08.304Z,7.93
2023-11-12T06:22:35.550Z,10.18
2023-11-12T06:25:02.782Z,10.02
2023-11-12T06:27:31.310Z,8.75
2023-11-12T06:29:59.146Z,9.23
2023-11-12T06:32:26.349Z,9.25
2023-11-12T06:34:53.557Z,11.93
2023-11-12T06:37:20.795Z,9.52
2023-11-12T06:39:47.956Z,11.35
2023-11-12T06:42:15.920Z,8.25
2023-11-12T06:44:43.485Z,9.13
2023-11-12T06:47:10.650Z,11.13
2023-11-12T06:49:37.681Z,12.25
2023-11-12T06:52:05.133Z,7.93
2023-11-12T06:54:32.326Z,10.85
2023-11-12T06:57:00.636Z,15.60
2023-11-12T06:59:29.206Z,15.65
2023-11-12T07:01:56.484Z,14.00
2023-11-12T07:04:23.638Z,12.30
2023-11-12T07:07:01.846Z,13.45
2023-11-12T07:09:36.868Z,13.57
2023-11-12T07:12:05.895Z,13.23
2023-11-12T07:14:33.274Z,12.88
2023-11-12T07:17:00.935Z,11.30
2023-11-12T07:19:29.829Z,17.30
2023-11-12T07:21:56.964Z,17.02
2023-11-12T07:24:24.061Z,18.08
2023-11-12T07:26:51.244Z,18.92
2023-11-12T07:29:18.306Z,16.17
2023-11-12T07:31:45.990Z,18.02
2023-11-12T07:34:13.185Z,14.05
2023-11-12T07:36:40.378Z,11.68
2023-11-12T07:39:08.928Z,15.90
2023-11-12T07:41:36.605Z,13.40
2023-11-12T07:44:04.062Z,13.80
2023-11-12T07:46:31.406Z,12.52
2023-11-12T07:48:58.704Z,10.90
2023-11-12T07:51:25.832Z,12.77
2023-11-12T07:53:52.994Z,14.57
2023-11-12T07:56:23.331Z,16.27
2023-11-12T07:58:51.729Z,10.30
2023-11-12T08:01:18.955Z,12.00
2023-11-12T08:03:46.192Z,11.75
2023-11-12T08:06:14.770Z,18.13
2023-11-12T08:08:42.165Z,12.35
2023-11-12T08:11:09.178Z,12.60
2023-11-12T08:13:37.484Z,14.02
2023-11-12T08:16:05.552Z,13.00
2023-11-12T08:18:33.776Z,17.02
2023-11-12T08:21:00.935Z,16.67
2023-11-12T08:23:28.017Z,20.52
2023-11-12T08:25:55.938Z,27.80
2023-11-12T08:28:25.775Z,24.50
2023-11-12T08:30:53.048Z,27.10
2023-11-12T08:33:20.221Z,25.80
2023-11-12T08:35:47.259Z,26.10
2023-11-12T08:38:14.501Z,27.70
2023-11-12T08:40:44.279Z,29.77
2023-11-12T08:43:11.741Z,28.70
2023-11-12T08:45:38.930Z,28.42
2023-11-12T08:48:06.328Z,28.63
2023-11-12T08:50:34.351Z,27.17
2023-11-12T08:53:03.243Z,24.42
2023-11-12T08:55:30.736Z,23.88
2023-11-12T08:57:58.216Z,27.55
2023-11-12T09:00:25.629Z,30.75
2023-11-12T09:02:52.979Z,22.15
2023-11-12T09:05:20.252Z,23.73
2023-11-12T09:07:48.014Z,25.58
2023-11-12T09:10:15.310Z,24.92
2023-11-12T09:12:42.476Z,22.33
2023-11-12T09:15:11.085Z,25.02
2023-11-12T09:17:38.815Z,26.60
2023-11-12T09:20:07.164Z,25.00
2023-11-12T09:22:34.687Z,24.80
2023-11-12T09:25:09.520Z,27.35
2023-11-12T09:27:39.236Z,24.30
2023-11-12T09:30:07.454Z,21.48
2023-11-12T09:32:35.029Z,27.40
2023-11-12T09:35:02.164Z,23.55
2023-11-12T09:37:30.412Z,28.05
2023-11-12T09:39:57.531Z,27.73
2023-11-12T09:42:28.235Z,25.85
2023-11-12T09:45:06.569Z,26.55
2023-11-12T09:47:43.753Z,25.52
2023-11-12T09:50:12.091Z,30.40
2023-11-12T09:52:39.914Z,31.70
2023-11-12T09:55:08.639Z,30.33
2023-11-12T09:57:35.797Z,26.55
2023-11-12T10:00:06.479Z,25.85
2023-11-12T10:02:38.155Z,21.65
2023-11-12T10:05:11.517Z,24.02
2023-11-12T10:07:42.166Z,19.23
2023-11-12T10:10:25.915Z,19.08
2023-11-12T10:12:55.604Z,23.83
2023-11-12T10:15:27.983Z,24.83
2023-11-12T10:17:59.733Z,24.30
2023-11-12T10:20:31.795Z,25.30
2023-11-12T10:22:59.089Z,21.92
2023-11-12T10:25:40.831Z,21.60
2023-11-12T10:28:11.129Z,22.60
2023-11-12T10:30:42.651Z,20.00
2023-11-12T10:33:28.348Z,20.05
2023-11-12T10:35:56.824Z,17.98
2023-11-12T10:38:24.444Z,23.25
2023-11-12T10:40:59.773Z,22.73
2023-11-12T10:43:28.875Z,21.98
2023-11-12T10:45:59.992Z,20.92
2023-11-12T10:48:35.202Z,18.92
2023-11-12T10:51:07.885Z,20.02
2023-11-12T10:53:38.766Z,20.08
2023-11-12T10:56:11.166Z,20.48
2023-11-12T10:58:38.420Z,19.48
2023-11-12T11:01:08.467Z,18.50
2023-11-12T11:03:36.699Z,23.17
2023-11-12T11:06:05.083Z,19.10
2023-11-12T11:08:34.766Z,19.92
2023-11-12T11:13:34.561Z,19.67
2023-11-12T11:16:02.084Z,28.30
2023-11-12T11:18:31.959Z,14.95
2023-11-12T11:21:16.634Z,68.13
2023-11-12T11:23:55.091Z,28.67
2023-11-12T11:26:28.372Z,22.05
2023-11-12T11:29:04.114Z,17.80
2023-11-12T11:31:35.339Z,22.02
2023-11-12T11:34:04.331Z,18.27
2023-11-12T11:36:32.935Z,16.40
2023-11-12T11:39:03.686Z,19.20
2023-11-12T11:41:49.177Z,14.63
2023-11-12T11:44:47.800Z,15.02
2023-11-12T11:47:16.363Z,16.23
2023-11-12T11:49:48.464Z,15.13
2023-11-12T11:52:25.465Z,15.55
2023-11-12T11:54:57.551Z,17.23
2023-11-12T11:57:29.401Z,17.02
2023-11-12T12:00:00.694Z,15.07
2023-11-12T12:02:28.895Z,16.05
2023-11-12T12:05:01.033Z,19.33
2023-11-12T12:07:32.627Z,16.55
2023-11-12T12:10:01.705Z,17.05
2023-11-12T12:12:32.006Z,15.05
2023-11-12T12:14:59.315Z,16.35
2023-11-12T12:17:26.597Z,16.15
2023-11-12T12:19:55.128Z,17.42
2023-11-12T12:22:25.881Z,23.13
2023-11-12T12:24:56.902Z,15.82
2023-11-12T12:27:25.596Z,16.95
2023-11-12T12:29:54.577Z,17.77
2023-11-12T12:32:22.442Z,15.85
2023-11-12T12:35:01.528Z,16.13
2023-11-12T12:37:32.754Z,20.08
2023-11-12T12:40:18.171Z,18.92
2023-11-12T12:42:46.121Z,16.67
2023-11-12T12:45:17.147Z,18.95
2023-11-12T12:47:45.692Z,14.15
2023-11-12T12:50:29.743Z,18.83
2023-11-12T12:53:14.407Z,10.50
2023-11-12T12:55:45.794Z,10.55
2023-11-12T12:58:13.645Z,11.88
2023-11-12T13:00:45.123Z,23.30
2023-11-12T13:03:28.407Z,41.67
2023-11-12T13:05:58.046Z,31.27
2023-11-12T13:08:25.499Z,13.15
2023-11-12T13:10:52.904Z,11.65
2023-11-12T13:13:22.908Z,11.48
2023-11-12T13:15:50.517Z,9.52
2023-11-12T13:18:19.169Z,11.35
2023-11-12T13:20:47.392Z,11.90
2023-11-12T13:23:15.316Z,12.55
2023-11-12T13:25:43.174Z,9.88
2023-11-12T13:28:13.119Z,13.80
2023-11-12T13:30:40.551Z,9.73
2023-11-12T13:33:09.103Z,9.40
2023-11-12T13:35:39.284Z,8.25
2023-11-12T13:38:07.046Z,13.75
2023-11-12T13:40:34.479Z,15.63
2023-11-12T13:43:01.849Z,84.32
2023-11-12T13:45:29.237Z,30.08
2023-11-12T13:47:56.740Z,40.53
2023-11-12T13:50:26.368Z,51.40
2023-11-12T13:52:59.544Z,46.20
2023-11-12T13:55:30.323Z,14.93
2023-11-12T13:58:00.650Z,7.25
2023-11-12T14:00:31.959Z,19.52
2023-11-12T14:03:02.715Z,16.52
2023-11-12T14:05:30.022Z,11.73
2023-11-12T14:08:00.859Z,9.60
2023-11-12T14:10:28.378Z,14.73
2023-11-12T14:12:55.601Z,5.88
2023-11-12T14:15:23.505Z,9.50
2023-11-12T14:18:15.495Z,4.57
2023-11-12T14:20:43.311Z,4.90
2023-11-12T14:23:10.642Z,6.00
2023-11-12T14:25:52.366Z,9.18
2023-11-12T14:28:24.743Z,10.07
2023-11-12T14:30:52.228Z,6.75
2023-11-12T14:33:19.800Z,8.40
2023-11-12T14:35:47.005Z,8.40
2023-11-12T14:38:14.389Z,4.30
2023-11-12T14:40:41.542Z,6.85
2023-11-12T14:43:11.080Z,9.27
2023-11-12T14:48:08.518Z,6.75
2023-11-12T14:50:35.503Z,10.27
2023-11-12T14:53:02.622Z,7.63
2023-11-12T14:55:29.859Z,13.43
2023-11-12T14:57:58.101Z,9.95
2023-11-12T15:00:29.794Z,9.70
2023-11-12T15:03:01.734Z,10.40
2023-11-12T15:05:29.676Z,10.73
2023-11-12T15:07:57.090Z,8.10
2023-11-12T15:10:24.325Z,8.52
2023-11-12T15:12:51.962Z,5.32
2023-11-12T15:15:20.693Z,9.77
2023-11-12T15:17:48.407Z,9.73
2023-11-12T15:20:15.775Z,8.07
2023-11-12T15:22:45.695Z,12.18
2023-11-12T15:25:16.721Z,11.32
2023-11-12T15:27:49.658Z,7.07
2023-11-12T15:30:18.721Z,9.75
2023-11-12T15:32:47.227Z,12.80
2023-11-12T15:35:15.917Z,12.05
2023-11-12T15:37:45.600Z,12.60
2023-11-12T15:40:19.862Z,11.13
2023-11-12T15:42:53.500Z,12.13
2023-11-12T15:45:25.019Z,12.32
2023-11-12T15:47:53.207Z,13.00
2023-11-12T15:50:22.947Z,12.75
2023-11-12T15:52:50.330Z,16.58
2023-11-12T15:55:18.715Z,11.20
2023-11-12T15:57:46.316Z,12.40
2023-11-12T16:00:16.436Z,13.15
2023-11-12T16:02:45.773Z,12.32
2023-11-12T16:05:16.591Z,10.98
2023-11-12T16:07:44.985Z,13.68
2023-11-12T16:10:15.592Z,11.57
2023-11-12T16:12:43.308Z,10.68
2023-11-12T16:15:16.722Z,14.68
2023-11-12T16:17:45.538Z,14.55
2023-11-12T16:20:13.956Z,11.93
2023-11-12T16:22:42.201Z,14.70
2023-11-12T16:25:10.574Z,13.35
2023-11-12T16:27:39.092Z,14.25
2023-11-12T16:30:08.781Z,15.93
2023-11-12T16:32:39.468Z,14.93
2023-11-12T16:35:07.843Z,13.98
2023-11-12T16:37:34.911Z,11.85
2023-11-12T16:40:06.156Z,13.82
2023-11-12T16:42:33.723Z,15.43
2023-11-12T16:45:00.887Z,12.88
2023-11-12T16:47:30.419Z,11.43
2023-11-12T16:49:58.070Z,11.93
2023-11-12T16:52:25.551Z,12.75
2023-11-12T16:54:54.637Z,13.93
2023-11-12T16:57:21.865Z,21.90
2023-11-12T16:59:49.231Z,24.10
2023-11-12T17:02:17.481Z,22.90
2023-11-12T17:04:46.427Z,16.05
2023-11-12T17:07:13.558Z,13.35
2023-11-12T17:09:46.505Z,27.48
2023-11-12T17:12:15.047Z,22.90
2023-11-12T17:14:42.866Z,19.63
2023-11-12T17:17:10.080Z,17.83
2023-11-12T17:19:37.293Z,16.63
2023-11-12T17:22:04.595Z,19.90
2023-11-12T17:24:33.207Z,21.35
2023-11-12T17:27:05.070Z,20.67
2023-11-12T17:29:35.238Z,23.10
2023-11-12T17:32:02.469Z,22.20
2023-11-12T17:34:30.602Z,20.52
2023-11-12T17:37:00.213Z,24.58
2023-11-12T17:39:27.500Z,23.15
2023-11-12T17:41:54.624Z,25.50
2023-11-12T17:44:24.579Z,31.90
2023-11-12T17:46:51.835Z,28.48
2023-11-12T17:49:19.359Z,28.17
2023-11-12T17:51:47.614Z,28.38
2023-11-12T17:54:17.160Z,28.55
2023-11-12T17:56:44.440Z,29.95
2023-11-12T17:59:12.879Z,27.55
2023-11-12T18:01:43.246Z,28.02
2023-11-12T18:04:10.439Z,25.85
2023-11-12T18:06:39.283Z,24.13
2023-11-12T18:09:06.576Z,25.33
2023-11-12T18:11:35.347Z,27.38
2023-11-12T18:14:02.455Z,40.25
2023-11-12T18:16:29.754Z,51.80
2023-11-12T18:18:59.662Z,36.33
2023-11-12T18:21:30.125Z,31.10
2023-11-12T18:23:57.375Z,33.47
2023-11-12T18:26:25.118Z,28.42
2023-11-12T18:28:53.279Z,35.63
2023-11-12T18:31:24.735Z,32.80
2023-11-12T18:33:52.228Z,29.85
2023-11-12T18:36:19.430Z,29.17
2023-11-12T18:38:46.584Z,33.40
2023-11-12T18:41:15.676Z,30.25
2023-11-12T18:43:42.910Z,32.97
2023-11-12T18:46:10.267Z,36.80
2023-11-12T18:48:41.402Z,35.28
2023-11-12T18:51:08.759Z,33.75
2023-11-12T18:53:36.141Z,32.85
2023-11-12T18:56:08.440Z,29.30
2023-11-12T18:58:36.063Z,33.33
2023-11-12T19:01:03.146Z,31.25
2023-11-12T19:03:30.822Z,35.50
2023-11-12T19:05:57.960Z,31.35
2023-11-12T19:08:25.056Z,31.08
2023-11-12T19:10:52.247Z,34.53
2023-11-12T19:13:19.480Z,31.95
2023-11-12T19:15:47.068Z,31.67
2023-11-12T19:18:14.669Z,31.45
2023-11-12T19:20:42.061Z,32.25
2023-11-12T19:23:09.246Z,30.67
2023-11-12T19:25:40.267Z,32.88
2023-11-12T19:28:07.496Z,32.45
2023-11-12T19:30:35.805Z,32.03
2023-11-12T19:33:03.312Z,29.27
2023-11-12T19:35:30.409Z,27.02
2023-11-12T19:37:58.015Z,32.13
2023-11-12T19:40:26.692Z,27.73
2023-11-12T19:42:54.444Z,31.60
2023-11-12T19:45:22.794Z,30.02
2023-11-12T19:47:54.782Z,73.78
2023-11-12T19:50:23.563Z,33.42
2023-11-12T19:52:51.253Z,34.08
2023-11-12T19:55:20.836Z,34.30
2023-11-12T19:57:53.834Z,35.83
2023-11-12T20:00:23.150Z,33.58
2023-11-12T20:02:51.978Z,34.58
2023-11-12T20:07:46.771Z,33.70
2023-11-12T20:10:14.407Z,37.92
2023-11-12T20:12:41.611Z,36.08
2023-11-12T20:15:09.625Z,37.00
2023-11-12T20:17:37.859Z,38.63
2023-11-12T20:20:05.695Z,41.80
2023-11-12T20:22:33.349Z,47.80
2023-11-12T20:25:01.248Z,51.42
2023-11-12T20:27:32.473Z,49.67
2023-11-12T20:29:59.775Z,48.95
2023-11-12T20:32:29.370Z,44.83
2023-11-12T20:34:57.532Z,45.30
2023-11-12T20:37:26.161Z,45.03
2023-11-12T20:39:53.559Z,45.78
2023-11-12T20:42:21.023Z,56.38
2023-11-12T20:44:49.390Z,57.90
2023-11-12T20:47:16.671Z,57.03
2023-11-12T20:49:44.150Z,51.45
2023-11-12T20:52:11.582Z,53.03
2023-11-12T20:54:39.221Z,55.47
2023-11-12T20:57:07.625Z,50.75
2023-11-12T20:59:35.067Z,52.87
2023-11-12T21:02:13.729Z,47.63
2023-11-12T21:04:46.142Z,49.78
2023-11-12T21:07:14.061Z,49.78
2023-11-12T21:09:41.792Z,51.88
2023-11-12T21:12:10.684Z,48.17
2023-11-12T21:14:38.539Z,50.50
2023-11-12T21:17:05.768Z,51.95
2023-11-12T21:19:35.662Z,47.25
2023-11-12T21:22:02.786Z,47.42
2023-11-12T21:24:30.399Z,43.35
2023-11-12T21:26:58.918Z,45.50
2023-11-12T21:29:26.567Z,44.83
2023-11-12T21:31:55.318Z,40.95
2023-11-12T21:34:23.152Z,44.63
2023-11-12T21:36:51.468Z,43.60
2023-11-12T21:39:20.206Z,38.15
2023-11-12T21:41:49.219Z,36.95
2023-11-12T21:44:18.846Z,40.75
2023-11-12T21:46:47.506Z,39.85
2023-11-12T21:49:14.974Z,40.88
2023-11-12T21:51:42.314Z,35.15
2023-11-12T21:54:09.897Z,38.78
2023-11-12T21:56:37.018Z,38.22
2023-11-12T21:59:07.019Z,33.08
2023-11-12T22:01:34.301Z,34.97
2023-11-12T22:04:03.062Z,34.58
2023-11-12T22:06:30.564Z,34.67
2023-11-12T22:08:57.884Z,30.08
2023-11-12T22:11:26.837Z,31.25
2023-11-12T22:13:54.893Z,28.77
2023-11-12T22:16:22.190Z,28.45
2023-11-12T22:18:49.398Z,28.58
2023-11-12T22:21:17.884Z,28.27
2023-11-12T22:23:44.891Z,29.40
2023-11-12T22:26:12.558Z,28.63
2023-11-12T22:28:39.679Z,22.83
2023-11-12T22:31:06.899Z,27.17
2023-11-12T22:33:34.126Z,28.35
2023-11-12T22:36:01.703Z,29.63
2023-11-12T22:38:28.929Z,28.08
2023-11-12T22:40:57.436Z,29.50
2023-11-12T22:43:25.859Z,28.27
2023-11-12T22:45:53.266Z,31.88
2023-11-12T22:48:20.416Z,27.67
2023-11-12T22:50:47.626Z,26.48
2023-11-12T22:53:14.825Z,29.15
2023-11-12T22:55:43.339Z,33.03
2023-11-12T22:58:10.790Z,31.70
2023-11-12T23:00:47.419Z,34.65
2023-11-12T23:03:16.194Z,33.70
2023-11-12T23:05:44.854Z,32.75
2023-11-12T23:08:12.623Z,32.20
2023-11-12T23:10:43.904Z,30.60
2023-11-12T23:13:14.480Z,27.52
2023-11-12T23:15:44.284Z,30.83
2023-11-12T23:18:13.303Z,32.05
2023-11-12T23:20:41.513Z,28.02
2023-11-12T23:23:09.379Z,28.98
2023-11-12T23:25:36.612Z,29.65
2023-11-12T23:28:03.863Z,28.13
2023-11-12T23:30:31.808Z,31.40
2023-11-12T23:32:58.913Z,30.33
2023-11-12T23:35:28.604Z,27.75
2023-11-12T23:37:55.711Z,29.88
2023-11-12T23:40:23.076Z,26.95
2023-11-12T23:42:50.245Z,30.13
2023-11-12T23:45:18.007Z,29.75
2023-11-12T23:47:45.242Z,28.60
2023-11-12T23:50:12.494Z,28.55
2023-11-12T23:52:40.216Z,28.02
2023-11-12T23:55:07.835Z,29.88
2023-11-12T23:57:35.748Z,27.48
